createdAt,value
2023-03-05T00:00:55.581Z,3.46
2023-03-05T00:06:17.243Z,3.61
2023-03-05T00:11:38.980Z,3.66
2023-03-05T00:17:00.305Z,3.71
2023-03-05T00:22:21.776Z,3.79
2023-03-05T00:27:43.198Z,3.67
2023-03-05T00:33:04.954Z,3.64
2023-03-05T00:38:25.947Z,3.73
2023-03-05T00:43:48.371Z,3.58
2023-03-05T00:49:09.611Z,3.42
2023-03-05T00:54:30.859Z,3.35
2023-03-05T00:59:52.417Z,3.16
2023-03-05T01:05:15.309Z,3.12
2023-03-05T01:10:36.951Z,3.14
2023-03-05T01:15:58.102Z,3.05
2023-03-05T01:21:22.019Z,3.04
2023-03-05T01:26:43.154Z,2.80
2023-03-05T01:32:05.454Z,2.66
2023-03-05T01:37:27.049Z,2.67
2023-03-05T01:42:55.398Z,2.74
2023-03-05T01:48:16.915Z,2.88
2023-03-05T01:53:38.468Z,3.02
2023-03-05T01:59:01.934Z,3.12
2023-03-05T02:04:32.571Z,3.22
2023-03-05T02:09:53.785Z,3.40
2023-03-05T02:15:16.164Z,3.43
2023-03-05T02:21:07.602Z,3.31
2023-03-05T02:26:28.645Z,3.21
2023-03-05T02:31:50.163Z,3.27
2023-03-05T02:37:11.690Z,3.18
2023-03-05T02:42:33.739Z,3.25
2023-03-05T02:47:55.775Z,3.30
2023-03-05T02:53:17.404Z,3.34
2023-03-05T02:58:39.100Z,3.35
2023-03-05T03:04:00.647Z,3.39
2023-03-05T03:09:21.962Z,3.36
2023-03-05T03:14:43.744Z,3.23
2023-03-05T03:20:08.670Z,3.16
2023-03-05T03:25:30.917Z,3.01
2023-03-05T03:30:52.132Z,2.76
2023-03-05T03:36:14.293Z,2.41
2023-03-05T03:41:43.222Z,2.18
2023-03-05T03:47:04.715Z,2.15
2023-03-05T03:52:26.838Z,2.43
2023-03-05T03:57:48.308Z,2.62
2023-03-05T04:03:10.007Z,2.88
2023-03-05T04:08:31.290Z,3.00
2023-03-05T04:13:52.591Z,2.95
2023-03-05T04:19:14.937Z,3.03
2023-03-05T04:24:36.204Z,2.98
2023-03-05T04:29:57.573Z,2.79
2023-03-05T04:35:19.167Z,2.80
2023-03-05T04:40:40.971Z,2.66
2023-03-05T04:46:02.356Z,2.68
2023-03-05T04:51:23.983Z,2.79
2023-03-05T04:56:45.026Z,2.93
2023-03-05T05:02:06.500Z,2.96
2023-03-05T05:07:27.926Z,2.89
2023-03-05T05:12:49.027Z,2.94
2023-03-05T05:18:10.511Z,3.03
2023-03-05T05:23:31.904Z,3.03
2023-03-05T05:28:53.316Z,2.84
2023-03-05T05:34:15.722Z,2.76
2023-03-05T05:39:37.060Z,2.76
2023-03-05T05:44:58.417Z,2.68
2023-03-05T05:50:22.616Z,2.69
2023-03-05T05:55:43.714Z,2.59
2023-03-05T06:01:14.968Z,2.48
2023-03-05T06:06:36.398Z,2.41
2023-03-05T06:11:57.840Z,2.31
2023-03-05T06:17:29.848Z,2.32
2023-03-05T06:22:51.396Z,2.40
2023-03-05T06:28:12.781Z,2.42
2023-03-05T06:33:35.299Z,2.45
2023-03-05T06:38:57.914Z,2.49
2023-03-05T06:44:19.204Z,2.46
2023-03-05T06:49:40.951Z,2.36
2023-03-05T06:55:02.092Z,2.48
2023-03-05T07:00:23.753Z,2.51
2023-03-05T07:05:45.327Z,2.60
2023-03-05T07:11:15.576Z,2.62
2023-03-05T07:16:36.943Z,2.71
2023-03-05T07:21:58.085Z,2.75
2023-03-05T07:27:19.427Z,2.88
2023-03-05T07:32:41.493Z,3.09
2023-03-05T07:38:02.877Z,3.16
2023-03-05T07:43:24.389Z,3.23
2023-03-05T07:48:45.980Z,3.53
2023-03-05T07:54:07.139Z,3.78
2023-03-05T07:59:28.627Z,4.12
2023-03-05T08:04:50.100Z,4.60
2023-03-05T08:10:11.943Z,4.67
2023-03-05T08:15:33.436Z,4.93
2023-03-05T08:20:54.744Z,5.84
2023-03-05T08:26:20.982Z,5.81
2023-03-05T08:31:46.243Z,5.93
2023-03-05T08:37:07.748Z,6.25
2023-03-05T08:42:29.177Z,6.15
2023-03-05T08:47:50.668Z,6.25
2023-03-05T08:53:12.246Z,6.34
2023-03-05T08:58:33.833Z,6.47
2023-03-05T09:03:55.146Z,6.91
2023-03-05T09:09:16.867Z,7.15
2023-03-05T09:14:38.052Z,7.05
2023-03-05T09:19:59.492Z,7.14
2023-03-05T09:25:21.316Z,7.27
2023-03-05T09:30:43.805Z,7.80
2023-03-05T09:36:15.919Z,7.95
2023-03-05T09:42:13.248Z,8.38
2023-03-05T09:48:24.400Z,8.16
2023-03-05T09:54:03.506Z,7.39
2023-03-05T09:59:35.441Z,7.15
2023-03-05T10:05:50.443Z,7.48
2023-03-05T10:11:41.458Z,7.87
2023-03-05T10:17:58.974Z,7.89
2023-03-05T10:24:14.175Z,8.21
2023-03-05T10:29:53.217Z,8.14
2023-03-05T10:35:35.796Z,7.67
2023-03-05T10:40:57.287Z,7.32
2023-03-05T10:46:22.059Z,7.34
2023-03-05T10:51:54.796Z,7.68
2023-03-05T10:57:29.695Z,9.07
2023-03-05T11:02:54.017Z,9.93
2023-03-05T11:08:35.216Z,10.25
2023-03-05T11:14:02.015Z,7.21
2023-03-05T11:19:34.129Z,5.52
2023-03-05T11:25:17.387Z,5.69
2023-03-05T11:30:40.813Z,6.32
2023-03-05T11:36:39.864Z,8.16
2023-03-05T11:42:15.352Z,8.67
2023-03-05T11:47:48.239Z,9.01
2023-03-05T11:53:24.606Z,9.08
2023-03-05T11:59:03.239Z,9.01
2023-03-05T12:04:25.891Z,9.54
2023-03-05T12:09:52.278Z,9.45
2023-03-05T12:15:25.799Z,9.75
2023-03-05T12:21:07.129Z,9.28
2023-03-05T12:27:03.401Z,8.68
2023-03-05T12:32:24.878Z,8.99
2023-03-05T12:37:51.943Z,9.40
2023-03-05T12:43:33.273Z,9.58
2023-03-05T12:48:54.615Z,8.88
2023-03-05T12:54:36.323Z,8.15
2023-03-05T13:00:10.836Z,7.77
2023-03-05T13:05:35.870Z,8.33
2023-03-05T13:11:05.129Z,9.32
2023-03-05T13:16:31.654Z,9.17
2023-03-05T13:22:09.404Z,9.27
2023-03-05T13:27:32.614Z,8.94
2023-03-05T13:33:00.205Z,8.79
2023-03-05T13:38:47.667Z,8.89
2023-03-05T13:44:21.475Z,9.38
2023-03-05T13:49:43.118Z,8.92
2023-03-05T13:55:14.653Z,9.29
2023-03-05T14:00:38.441Z,9.26
2023-03-05T14:06:01.476Z,9.02
2023-03-05T14:11:23.114Z,9.10
2023-03-05T14:16:44.622Z,8.83
2023-03-05T14:22:06.926Z,8.52
2023-03-05T14:27:34.569Z,8.70
2023-03-05T14:32:56.655Z,9.13
2023-03-05T14:38:25.198Z,8.73
2023-03-05T14:43:46.405Z,8.46
2023-03-05T14:49:07.960Z,8.54
2023-03-05T14:54:36.497Z,8.13
2023-03-05T14:59:57.819Z,7.50
2023-03-05T15:05:20.187Z,7.41
2023-03-05T15:10:41.804Z,7.98
2023-03-05T15:16:05.093Z,8.19
2023-03-05T15:21:26.655Z,7.86
2023-03-05T15:26:50.139Z,7.57
2023-03-05T15:32:11.749Z,7.64
2023-03-05T15:37:33.228Z,7.94
2023-03-05T15:42:59.569Z,7.61
2023-03-05T15:48:20.732Z,7.20
2023-03-05T15:53:42.223Z,6.86
2023-03-05T15:59:03.795Z,6.70
2023-03-05T16:04:25.160Z,6.73
2023-03-05T16:09:49.700Z,6.70
2023-03-05T16:15:15.699Z,6.61
2023-03-05T16:20:37.088Z,6.49
2023-03-05T16:25:59.636Z,6.48
2023-03-05T16:31:21.332Z,6.45
2023-03-05T16:36:49.804Z,6.35
2023-03-05T16:42:11.333Z,6.15
2023-03-05T16:47:33.058Z,5.91
2023-03-05T16:52:54.538Z,5.82
2023-03-05T16:58:15.952Z,5.65
2023-03-05T17:03:37.895Z,5.53
2023-03-05T17:08:59.635Z,5.38
2023-03-05T17:14:21.549Z,5.12
2023-03-05T17:19:42.946Z,4.71
2023-03-05T17:25:05.121Z,4.45
2023-03-05T17:30:26.556Z,4.36
2023-03-05T17:35:48.093Z,4.18
2023-03-05T17:41:09.726Z,3.99
2023-03-05T17:46:31.278Z,3.90
2023-03-05T17:51:52.652Z,3.92
2023-03-05T17:57:14.020Z,3.88
2023-03-05T18:02:35.463Z,3.91
2023-03-05T18:07:57.336Z,4.01
2023-03-05T18:13:18.437Z,3.83
2023-03-05T18:18:39.914Z,3.87
2023-03-05T18:24:01.246Z,3.97
2023-03-05T18:29:22.688Z,3.88
2023-03-05T18:34:44.094Z,3.88
2023-03-05T18:40:07.398Z,3.93
2023-03-05T18:45:30.310Z,4.02
2023-03-05T18:50:53.440Z,3.96
2023-03-05T18:56:14.826Z,3.87
2023-03-05T19:01:36.200Z,3.83
2023-03-05T19:06:57.668Z,3.80
2023-03-05T19:12:21.813Z,3.76
2023-03-05T19:17:43.423Z,3.59
2023-03-05T19:23:04.571Z,3.27
2023-03-05T19:28:25.910Z,3.04
2023-03-05T19:33:48.402Z,2.84
2023-03-05T19:39:09.929Z,2.72
2023-03-05T19:44:31.790Z,2.75
2023-03-05T19:49:53.228Z,2.61
2023-03-05T19:55:14.684Z,2.67
2023-03-05T20:00:36.849Z,2.58
2023-03-05T20:05:58.210Z,2.58
2023-03-05T20:11:21.264Z,2.57
2023-03-05T20:16:43.546Z,2.63
2023-03-05T20:22:05.012Z,25.67
2023-03-05T20:27:26.657Z,-143.20
2023-03-05T20:32:48.218Z,-143.20
2023-03-05T20:38:26.638Z,-143.20
2023-03-05T20:43:50.458Z,-143.20
2023-03-05T20:49:11.870Z,-143.20
2023-03-05T20:54:32.958Z,-143.20
2023-03-05T20:59:54.541Z,-143.20
2023-03-05T21:05:15.959Z,-143.20
2023-03-05T21:10:38.554Z,25.67
2023-03-05T21:15:59.663Z,-143.20
2023-03-05T21:21:21.194Z,25.67
2023-03-05T21:26:42.726Z,-143.20
2023-03-05T21:37:25.511Z,-143.20
2023-03-05T21:42:47.822Z,-143.20
2023-03-05T21:48:10.029Z,25.67
2023-03-05T21:58:53.670Z,25.67
2023-03-05T22:04:15.375Z,36.24
2023-03-05T22:09:36.720Z,67.94
2023-03-05T22:14:58.229Z,194.85
2023-03-05T22:20:19.850Z,-143.20
2023-03-05T22:25:42.797Z,25.68
2023-03-05T22:31:04.571Z,-143.20
2023-03-05T22:36:25.897Z,25.67
2023-03-05T22:41:47.270Z,110.22
2023-03-05T22:47:08.536Z,-143.20
2023-03-05T22:52:29.655Z,-143.20
2023-03-05T22:57:51.136Z,-143.20
2023-03-05T23:03:12.564Z,-143.20
2023-03-05T23:08:33.846Z,-143.20
2023-03-05T23:13:55.263Z,-143.20
2023-03-05T23:19:16.764Z,-143.20
2023-03-05T23:24:39.099Z,-143.20
2023-03-05T23:30:21.227Z,-143.20
2023-03-05T23:35:51.778Z,-143.20
2023-03-05T23:41:12.812Z,-143.20
2023-03-05T23:46:34.175Z,-143.20
2023-03-05T23:51:55.289Z,-143.20
2023-03-05T23:57:16.976Z,-143.20
